Historical Weather Data
Okotoks
Hwy 2A and Milligan Dr

Date
ET inches
Rain inches
Temperature °C
Humidity
Avg
Wind kmh
Avg
Solar Wm2
Avg
High
Avg
Low
07/01/2020 0.20 0.19 20.2 13.9 8.4 65 12.5 325
07/02/2020 0.12 0.00 16.2 13.0 5.8 54 10.3 146
07/03/2020 0.24 0.00 23.6 15.1 5.3 53 9.2 340
07/04/2020 0.21 0.00 22.8 14.6 6.5 58 10.6 320
07/05/2020 0.20 0.00 21.3 13.3 3.7 68 7.0 343
07/06/2020 0.21 0.00 23.0 15.3 5.8 67 7.1 336
07/07/2020 0.07 0.08 16.9 11.9 7.0 85 8.9 125
07/08/2020 0.12 0.36 17.9 12.8 9.6 77 16.1 192
07/09/2020 0.18 0.01 21.1 14.3 6.0 74 8.3 287
07/10/2020 0.22 0.00 22.5 16.0 8.6 63 7.3 338
07/11/2020 0.23 0.00 24.7 16.3 5.0 55 9.5 323
07/12/2020 0.15 0.11 21.6 14.9 7.5 62 7.3 242
07/13/2020 0.16 0.02 19.3 12.1 4.4 64 5.9 275
07/14/2020 0.22 0.00 22.3 13.7 3.6 52 7.6 346
07/15/2020 0.19 0.00 25.0 15.2 5.8 60 6.5 295
07/16/2020 0.21 0.00 26.7 16.7 6.8 66 9.0 295
07/17/2020 0.18 0.30 23.8 15.5 8.1 69 7.7 285
07/18/2020 0.20 0.01 23.5 15.3 6.8 64 7.0 323
07/19/2020 0.15 0.09 22.6 14.6 7.5 77 7.2 247
07/20/2020 0.18 0.00 23.0 15.6 8.6 69 7.2 296
07/21/2020 0.18 0.00 26.3 17.2 7.3 71 6.0 269
07/22/2020 0.18 0.00 25.2 18.2 10.8 76 7.7 281
07/23/2020 0.19 0.02 28.4 19.4 11.2 76 9.7 277
07/24/2020 0.11 0.09 21.5 12.7 6.1 85 8.7 197
07/25/2020 0.19 0.00 22.0 13.3 3.4 67 5.5 329
07/26/2020 0.20 0.00 24.6 15.2 5.4 62 5.9 324
07/27/2020 0.23 0.00 27.2 17.8 6.3 63 9.7 320
07/28/2020 0.21 0.00 32.2 21.0 9.7 59 5.2 295
07/29/2020 0.18 0.00 29.8 20.8 11.3 71 8.0 258
07/30/2020 0.17 0.07 28.4 21.3 16.2 75 8.3 243
07/31/2020 0.18 0.00 28.4 20.8 13.6 75 7.9 244